map of GUA home
GUA - Airport
Location
City:  Guatemala City, Guatemala, Guatemala
Name:La Aurora International Airport
ICAO:MGGT
IATA:GUA

Details
Type:Airport (Aerodrome, Airfield)
Use:Public/Civil, Military, International (customs port of entry)
Latitude:1435'00"N (14.583272)
Longitude:9031'39"W (-90.527474)
Datum:WGS 1984
Elevation:4952 ft (1509 m)
Variation:0.99E (WMM2015 magnetic declination)
-0.14 annual change
Runways:1
Longest:9800 × 196 ft (2987 × 59.5 m), paved

Time
Time Zone:UTC-6
Local Time:

Weather
METAR:MGGT 181200Z 36012KT 9999 FEW008 BKN080 17/16 Q1027 A3033
TAF:MGGT 180500Z 1806/1906 02016KT 9999 FEW016 SCT090 TX25/1820Z TN16/1812Z
BECMG 1814/1816 FEW018
BECMG 1820/1822 SCT020
BECMG 1901/1903 SCT016

Related Locations
Nearby:
Farthest:CCK: 11925 mi / 19192 km
West Island (Pulau Panjang) [Cocos (Keeling) Islands], CC

Find:

   beyond  
but within

Other Information
Maps:
NOTAMs:
Links:
Sources:

  
  • flag of Guatemala
  • flag of Guatemala
  

Sectional Chart

Flight Planning
at skyvector.com

Satellite Image

Google Maps Satellite view

 

Copyright © 2004-2018 Karl L. Swartz. All rights reserved.
The Great Circle Mapper name and logo are trademarks of the Great Circle Mapper.
All other trademarks mentioned herein belong to their respective owners.
Please see credits for attibutions and further copyright information.

  Follow gcmap on Facebook Follow gcmap on Twitter Follow gcmap on Google+ GCmap on LinkedIn

hCard Microformat

Geo Microformat